Turner, Minnesota
Current Conditions -  °F | °C
As of 10:07 AM on Wednesday 28 Jan 2015 (Local Time) from KHZX Reporting Station
Overcast Overcast  
Wind Chill: 20°   Ceiling: 400
Heat Index: 28°   Visibility: 5mi
Dew Point: 27°   Wind: 9mph
Humidity: 93%   Direction: 140°SE
Pressure: 29.91"   Gusts: NA
Location:  46.7232°N, 93.3159°W
Report Text: KHZX 281607Z AUTO 14008KT 5SM OVC004 M02/M03 A2991 RMK AO2
Loading
Personal Weather Stations






























Interactive Weather Map New forecast layout! Learn more

10-Day Weather Forecast

Advertisements
Track Severe Weather on mobile